sensor_id;sensor_type;location;lat;lon;timestamp;P1;durP1;ratioP1;P2;durP2;ratioP2
56893;SDS011;43392;50.078;13.704;2023-02-28T00:01:33;10.70;;;5.90;;
56893;SDS011;43392;50.078;13.704;2023-02-28T00:03:59;17.42;;;6.68;;
56893;SDS011;43392;50.078;13.704;2023-02-28T00:06:26;12.57;;;6.30;;
56893;SDS011;43392;50.078;13.704;2023-02-28T00:08:53;12.00;;;6.10;;
56893;SDS011;43392;50.078;13.704;2023-02-28T00:11:20;15.07;;;6.82;;
56893;SDS011;43392;50.078;13.704;2023-02-28T00:13:47;12.40;;;7.00;;
56893;SDS011;43392;50.078;13.704;2023-02-28T00:16:16;12.15;;;6.22;;
56893;SDS011;43392;50.078;13.704;2023-02-28T00:18:44;12.50;;;6.18;;
56893;SDS011;43392;50.078;13.704;2023-02-28T00:21:12;13.15;;;6.70;;
56893;SDS011;43392;50.078;13.704;2023-02-28T00:23:39;15.80;;;6.13;;
56893;SDS011;43392;50.078;13.704;2023-02-28T00:26:06;15.65;;;7.25;;
56893;SDS011;43392;50.078;13.704;2023-02-28T00:28:32;14.50;;;6.28;;
56893;SDS011;43392;50.078;13.704;2023-02-28T00:30:59;15.80;;;6.90;;
56893;SDS011;43392;50.078;13.704;2023-02-28T00:33:27;16.23;;;7.15;;
56893;SDS011;43392;50.078;13.704;2023-02-28T00:36:00;12.60;;;6.77;;
56893;SDS011;43392;50.078;13.704;2023-02-28T00:38:29;13.33;;;6.83;;
56893;SDS011;43392;50.078;13.704;2023-02-28T00:40:56;12.50;;;6.50;;
56893;SDS011;43392;50.078;13.704;2023-02-28T00:43:23;15.23;;;7.10;;
56893;SDS011;43392;50.078;13.704;2023-02-28T00:45:50;13.87;;;6.30;;
56893;SDS011;43392;50.078;13.704;2023-02-28T00:48:16;13.57;;;7.10;;
56893;SDS011;43392;50.078;13.704;2023-02-28T00:50:44;14.10;;;7.28;;
56893;SDS011;43392;50.078;13.704;2023-02-28T00:53:14;13.43;;;6.72;;
56893;SDS011;43392;50.078;13.704;2023-02-28T00:55:41;14.10;;;7.03;;
56893;SDS011;43392;50.078;13.704;2023-02-28T00:58:07;12.73;;;6.83;;
56893;SDS011;43392;50.078;13.704;2023-02-28T01:00:34;16.53;;;7.20;;
56893;SDS011;43392;50.078;13.704;2023-02-28T01:03:00;14.05;;;7.68;;
56893;SDS011;43392;50.078;13.704;2023-02-28T01:05:27;16.37;;;7.90;;
56893;SDS011;43392;50.078;13.704;2023-02-28T01:07:55;16.03;;;8.00;;
56893;SDS011;43392;50.078;13.704;2023-02-28T01:10:21;17.10;;;7.87;;
56893;SDS011;43392;50.078;13.704;2023-02-28T01:12:48;15.13;;;8.37;;
56893;SDS011;43392;50.078;13.704;2023-02-28T01:15:15;16.20;;;8.27;;
56893;SDS011;43392;50.078;13.704;2023-02-28T01:17:41;14.63;;;7.53;;
56893;SDS011;43392;50.078;13.704;2023-02-28T01:20:08;15.50;;;7.70;;
56893;SDS011;43392;50.078;13.704;2023-02-28T01:22:36;17.40;;;8.53;;
56893;SDS011;43392;50.078;13.704;2023-02-28T01:25:04;15.93;;;8.40;;
56893;SDS011;43392;50.078;13.704;2023-02-28T01:27:31;14.87;;;7.50;;
56893;SDS011;43392;50.078;13.704;2023-02-28T01:29:57;16.03;;;8.07;;
56893;SDS011;43392;50.078;13.704;2023-02-28T01:32:24;15.67;;;7.50;;
56893;SDS011;43392;50.078;13.704;2023-02-28T01:34:51;15.43;;;8.00;;
56893;SDS011;43392;50.078;13.704;2023-02-28T01:37:17;15.43;;;7.80;;
56893;SDS011;43392;50.078;13.704;2023-02-28T01:39:44;16.37;;;8.30;;
56893;SDS011;43392;50.078;13.704;2023-02-28T01:42:12;14.17;;;7.97;;
56893;SDS011;43392;50.078;13.704;2023-02-28T01:44:55;18.03;;;8.63;;
56893;SDS011;43392;50.078;13.704;2023-02-28T01:47:25;16.27;;;8.67;;
56893;SDS011;43392;50.078;13.704;2023-02-28T01:49:53;16.77;;;8.17;;
56893;SDS011;43392;50.078;13.704;2023-02-28T01:52:21;15.13;;;8.00;;
56893;SDS011;43392;50.078;13.704;2023-02-28T01:54:51;19.60;;;9.17;;
56893;SDS011;43392;50.078;13.704;2023-02-28T01:57:21;18.98;;;8.55;;
56893;SDS011;43392;50.078;13.704;2023-02-28T01:59:52;18.63;;;8.77;;
56893;SDS011;43392;50.078;13.704;2023-02-28T02:02:24;15.53;;;8.57;;
56893;SDS011;43392;50.078;13.704;2023-02-28T02:04:51;17.63;;;8.73;;
56893;SDS011;43392;50.078;13.704;2023-02-28T02:07:21;15.05;;;9.18;;
56893;SDS011;43392;50.078;13.704;2023-02-28T02:09:49;16.00;;;8.63;;
56893;SDS011;43392;50.078;13.704;2023-02-28T02:12:19;16.03;;;8.80;;
56893;SDS011;43392;50.078;13.704;2023-02-28T02:15:00;17.50;;;9.03;;
56893;SDS011;43392;50.078;13.704;2023-02-28T02:17:36;18.70;;;9.77;;
56893;SDS011;43392;50.078;13.704;2023-02-28T02:26:01;15.80;;;9.18;;
56893;SDS011;43392;50.078;13.704;2023-02-28T02:28:49;17.10;;;8.85;;
56893;SDS011;43392;50.078;13.704;2023-02-28T02:31:39;21.13;;;9.53;;
56893;SDS011;43392;50.078;13.704;2023-02-28T02:34:35;15.37;;;9.50;;
56893;SDS011;43392;50.078;13.704;2023-02-28T02:37:15;18.03;;;9.27;;
56893;SDS011;43392;50.078;13.704;2023-02-28T02:39:55;19.47;;;9.47;;
56893;SDS011;43392;50.078;13.704;2023-02-28T02:42:31;17.27;;;9.33;;
56893;SDS011;43392;50.078;13.704;2023-02-28T02:45:06;16.17;;;9.33;;
56893;SDS011;43392;50.078;13.704;2023-02-28T02:47:37;17.03;;;9.17;;
56893;SDS011;43392;50.078;13.704;2023-02-28T02:50:11;17.88;;;9.93;;
56893;SDS011;43392;50.078;13.704;2023-02-28T02:52:42;19.80;;;9.50;;
56893;SDS011;43392;50.078;13.704;2023-02-28T02:55:11;17.10;;;9.32;;
56893;SDS011;43392;50.078;13.704;2023-02-28T02:57:43;17.43;;;8.83;;
56893;SDS011;43392;50.078;13.704;2023-02-28T03:00:12;18.37;;;9.47;;
56893;SDS011;43392;50.078;13.704;2023-02-28T03:02:42;16.33;;;8.97;;
56893;SDS011;43392;50.078;13.704;2023-02-28T03:05:14;19.57;;;9.80;;
56893;SDS011;43392;50.078;13.704;2023-02-28T03:07:45;18.90;;;9.43;;
56893;SDS011;43392;50.078;13.704;2023-02-28T03:10:29;17.10;;;9.13;;
56893;SDS011;43392;50.078;13.704;2023-02-28T03:16:16;16.63;;;9.03;;
56893;SDS011;43392;50.078;13.704;2023-02-28T03:19:10;18.30;;;9.93;;
56893;SDS011;43392;50.078;13.704;2023-02-28T03:21:53;17.33;;;8.93;;
56893;SDS011;43392;50.078;13.704;2023-02-28T03:24:32;17.40;;;9.27;;
56893;SDS011;43392;50.078;13.704;2023-02-28T03:27:06;20.63;;;10.20;;
56893;SDS011;43392;50.078;13.704;2023-02-28T03:29:36;18.80;;;9.48;;
56893;SDS011;43392;50.078;13.704;2023-02-28T03:32:06;17.27;;;9.13;;
56893;SDS011;43392;50.078;13.704;2023-02-28T03:34:39;21.57;;;12.43;;
56893;SDS011;43392;50.078;13.704;2023-02-28T03:37:13;18.50;;;9.97;;
56893;SDS011;43392;50.078;13.704;2023-02-28T03:39:45;25.23;;;12.90;;
56893;SDS011;43392;50.078;13.704;2023-02-28T03:42:15;17.20;;;9.27;;
56893;SDS011;43392;50.078;13.704;2023-02-28T03:44:46;19.02;;;10.07;;
56893;SDS011;43392;50.078;13.704;2023-02-28T03:47:17;22.20;;;10.57;;
56893;SDS011;43392;50.078;13.704;2023-02-28T03:49:49;19.83;;;9.47;;
56893;SDS011;43392;50.078;13.704;2023-02-28T03:52:22;19.80;;;10.07;;
56893;SDS011;43392;50.078;13.704;2023-02-28T03:54:56;16.03;;;9.23;;
56893;SDS011;43392;50.078;13.704;2023-02-28T03:57:30;18.90;;;9.90;;
56893;SDS011;43392;50.078;13.704;2023-02-28T04:00:02;20.27;;;10.07;;
56893;SDS011;43392;50.078;13.704;2023-02-28T04:02:32;18.33;;;9.88;;
56893;SDS011;43392;50.078;13.704;2023-02-28T04:04:59;24.50;;;11.83;;
56893;SDS011;43392;50.078;13.704;2023-02-28T04:07:30;20.07;;;10.23;;
56893;SDS011;43392;50.078;13.704;2023-02-28T04:09:56;26.27;;;13.02;;
56893;SDS011;43392;50.078;13.704;2023-02-28T04:12:23;18.83;;;10.23;;
56893;SDS011;43392;50.078;13.704;2023-02-28T04:14:50;19.00;;;9.63;;
56893;SDS011;43392;50.078;13.704;2023-02-28T04:17:17;19.38;;;10.48;;
56893;SDS011;43392;50.078;13.704;2023-02-28T04:19:44;22.27;;;10.23;;
56893;SDS011;43392;50.078;13.704;2023-02-28T04:22:10;19.60;;;9.85;;
56893;SDS011;43392;50.078;13.704;2023-02-28T04:24:39;21.23;;;10.57;;
56893;SDS011;43392;50.078;13.704;2023-02-28T04:27:06;20.97;;;10.17;;
56893;SDS011;43392;50.078;13.704;2023-02-28T04:29:34;19.92;;;10.18;;
56893;SDS011;43392;50.078;13.704;2023-02-28T04:32:01;17.88;;;9.80;;
56893;SDS011;43392;50.078;13.704;2023-02-28T04:34:28;23.40;;;10.23;;
56893;SDS011;43392;50.078;13.704;2023-02-28T04:36:56;19.75;;;9.23;;
56893;SDS011;43392;50.078;13.704;2023-02-28T04:39:25;18.90;;;10.03;;
56893;SDS011;43392;50.078;13.704;2023-02-28T04:41:53;18.83;;;10.05;;
56893;SDS011;43392;50.078;13.704;2023-02-28T04:44:19;18.37;;;9.47;;
56893;SDS011;43392;50.078;13.704;2023-02-28T04:46:47;16.52;;;8.10;;
56893;SDS011;43392;50.078;13.704;2023-02-28T04:49:14;15.82;;;8.65;;
56893;SDS011;43392;50.078;13.704;2023-02-28T04:51:41;17.33;;;8.60;;
56893;SDS011;43392;50.078;13.704;2023-02-28T04:54:08;16.40;;;8.37;;
56893;SDS011;43392;50.078;13.704;2023-02-28T04:56:35;16.73;;;9.03;;
56893;SDS011;43392;50.078;13.704;2023-02-28T04:59:03;24.47;;;12.70;;
56893;SDS011;43392;50.078;13.704;2023-02-28T05:01:30;16.80;;;9.40;;
56893;SDS011;43392;50.078;13.704;2023-02-28T05:03:59;27.70;;;16.50;;
56893;SDS011;43392;50.078;13.704;2023-02-28T05:06:28;33.47;;;18.27;;
56893;SDS011;43392;50.078;13.704;2023-02-28T05:08:57;21.40;;;11.73;;
56893;SDS011;43392;50.078;13.704;2023-02-28T05:11:24;22.47;;;12.63;;
56893;SDS011;43392;50.078;13.704;2023-02-28T05:13:54;21.90;;;12.32;;
56893;SDS011;43392;50.078;13.704;2023-02-28T05:16:22;17.93;;;9.60;;
56893;SDS011;43392;50.078;13.704;2023-02-28T05:18:48;24.17;;;12.27;;
56893;SDS011;43392;50.078;13.704;2023-02-28T05:21:21;20.57;;;10.77;;
56893;SDS011;43392;50.078;13.704;2023-02-28T05:23:51;20.93;;;11.47;;
56893;SDS011;43392;50.078;13.704;2023-02-28T05:26:17;20.60;;;11.00;;
56893;SDS011;43392;50.078;13.704;2023-02-28T05:28:44;21.10;;;11.70;;
56893;SDS011;43392;50.078;13.704;2023-02-28T05:31:11;21.07;;;11.07;;
56893;SDS011;43392;50.078;13.704;2023-02-28T05:33:39;22.53;;;11.17;;
56893;SDS011;43392;50.078;13.704;2023-02-28T05:36:06;19.73;;;9.60;;
56893;SDS011;43392;50.078;13.704;2023-02-28T05:38:33;17.43;;;8.77;;
56893;SDS011;43392;50.078;13.704;2023-02-28T05:41:04;16.33;;;7.97;;
56893;SDS011;43392;50.078;13.704;2023-02-28T05:43:31;16.57;;;8.13;;
56893;SDS011;43392;50.078;13.704;2023-02-28T05:45:58;14.30;;;7.63;;
56893;SDS011;43392;50.078;13.704;2023-02-28T05:48:25;15.83;;;8.27;;
56893;SDS011;43392;50.078;13.704;2023-02-28T05:50:53;16.43;;;8.50;;
56893;SDS011;43392;50.078;13.704;2023-02-28T05:53:22;17.83;;;8.77;;
56893;SDS011;43392;50.078;13.704;2023-02-28T05:55:49;18.30;;;8.60;;
56893;SDS011;43392;50.078;13.704;2023-02-28T05:58:15;16.23;;;8.47;;
56893;SDS011;43392;50.078;13.704;2023-02-28T06:00:42;15.87;;;8.40;;
56893;SDS011;43392;50.078;13.704;2023-02-28T06:03:09;15.63;;;7.40;;
56893;SDS011;43392;50.078;13.704;2023-02-28T06:05:35;14.80;;;8.27;;
56893;SDS011;43392;50.078;13.704;2023-02-28T06:08:05;16.57;;;8.53;;
56893;SDS011;43392;50.078;13.704;2023-02-28T06:10:32;18.03;;;8.73;;
56893;SDS011;43392;50.078;13.704;2023-02-28T06:12:59;16.97;;;8.07;;
56893;SDS011;43392;50.078;13.704;2023-02-28T06:15:27;17.20;;;8.83;;
56893;SDS011;43392;50.078;13.704;2023-02-28T06:17:54;17.00;;;7.97;;
56893;SDS011;43392;50.078;13.704;2023-02-28T06:20:22;16.53;;;8.53;;
56893;SDS011;43392;50.078;13.704;2023-02-28T06:22:51;18.77;;;9.50;;
56893;SDS011;43392;50.078;13.704;2023-02-28T06:25:20;17.63;;;8.63;;
56893;SDS011;43392;50.078;13.704;2023-02-28T06:27:47;17.87;;;8.83;;
56893;SDS011;43392;50.078;13.704;2023-02-28T06:30:14;18.40;;;8.53;;
56893;SDS011;43392;50.078;13.704;2023-02-28T06:32:41;16.13;;;8.17;;
56893;SDS011;43392;50.078;13.704;2023-02-28T06:35:07;17.93;;;9.00;;
56893;SDS011;43392;50.078;13.704;2023-02-28T06:37:35;21.23;;;9.40;;
56893;SDS011;43392;50.078;13.704;2023-02-28T06:40:02;15.53;;;8.20;;
56893;SDS011;43392;50.078;13.704;2023-02-28T06:42:33;16.53;;;9.60;;
56893;SDS011;43392;50.078;13.704;2023-02-28T06:44:59;19.77;;;8.80;;
56893;SDS011;43392;50.078;13.704;2023-02-28T06:47:28;15.97;;;8.90;;
56893;SDS011;43392;50.078;13.704;2023-02-28T06:49:56;20.20;;;8.83;;
56893;SDS011;43392;50.078;13.704;2023-02-28T06:52:23;17.40;;;8.30;;
56893;SDS011;43392;50.078;13.704;2023-02-28T06:54:49;16.40;;;8.60;;
56893;SDS011;43392;50.078;13.704;2023-02-28T06:57:24;18.87;;;9.20;;
56893;SDS011;43392;50.078;13.704;2023-02-28T06:59:52;16.47;;;9.23;;
56893;SDS011;43392;50.078;13.704;2023-02-28T07:02:19;16.90;;;9.10;;
56893;SDS011;43392;50.078;13.704;2023-02-28T07:04:45;16.67;;;8.77;;
56893;SDS011;43392;50.078;13.704;2023-02-28T07:07:12;18.50;;;8.57;;
56893;SDS011;43392;50.078;13.704;2023-02-28T07:09:38;19.47;;;9.10;;
56893;SDS011;43392;50.078;13.704;2023-02-28T07:12:05;20.63;;;9.87;;
56893;SDS011;43392;50.078;13.704;2023-02-28T07:14:32;19.67;;;9.80;;
56893;SDS011;43392;50.078;13.704;2023-02-28T07:16:59;19.85;;;9.38;;
56893;SDS011;43392;50.078;13.704;2023-02-28T07:19:26;18.42;;;9.20;;
56893;SDS011;43392;50.078;13.704;2023-02-28T07:21:53;19.77;;;9.48;;
56893;SDS011;43392;50.078;13.704;2023-02-28T07:24:19;21.97;;;9.87;;
56893;SDS011;43392;50.078;13.704;2023-02-28T07:26:48;20.43;;;10.03;;
56893;SDS011;43392;50.078;13.704;2023-02-28T07:29:15;16.90;;;8.93;;
56893;SDS011;43392;50.078;13.704;2023-02-28T07:31:41;15.53;;;8.70;;
56893;SDS011;43392;50.078;13.704;2023-02-28T07:34:09;21.03;;;9.87;;
56893;SDS011;43392;50.078;13.704;2023-02-28T07:36:36;17.80;;;9.30;;
56893;SDS011;43392;50.078;13.704;2023-02-28T07:39:03;17.27;;;9.83;;
56893;SDS011;43392;50.078;13.704;2023-02-28T07:41:29;16.87;;;9.60;;
56893;SDS011;43392;50.078;13.704;2023-02-28T07:43:59;20.00;;;10.02;;
56893;SDS011;43392;50.078;13.704;2023-02-28T07:46:25;17.75;;;9.48;;
56893;SDS011;43392;50.078;13.704;2023-02-28T07:48:54;21.35;;;10.65;;
56893;SDS011;43392;50.078;13.704;2023-02-28T07:51:25;17.20;;;9.23;;
56893;SDS011;43392;50.078;13.704;2023-02-28T07:53:52;16.88;;;9.52;;
56893;SDS011;43392;50.078;13.704;2023-02-28T07:56:19;18.08;;;9.55;;
56893;SDS011;43392;50.078;13.704;2023-02-28T07:58:45;18.10;;;9.30;;
56893;SDS011;43392;50.078;13.704;2023-02-28T08:01:12;20.23;;;9.85;;
56893;SDS011;43392;50.078;13.704;2023-02-28T08:03:39;18.45;;;10.05;;
56893;SDS011;43392;50.078;13.704;2023-02-28T08:06:07;17.20;;;9.65;;
56893;SDS011;43392;50.078;13.704;2023-02-28T08:08:42;15.05;;;9.50;;
56893;SDS011;43392;50.078;13.704;2023-02-28T08:11:09;18.02;;;9.85;;
56893;SDS011;43392;50.078;13.704;2023-02-28T08:13:36;17.20;;;9.40;;
56893;SDS011;43392;50.078;13.704;2023-02-28T08:16:02;17.15;;;9.77;;
56893;SDS011;43392;50.078;13.704;2023-02-28T08:18:29;19.17;;;10.13;;
56893;SDS011;43392;50.078;13.704;2023-02-28T08:20:55;15.30;;;9.00;;
56893;SDS011;43392;50.078;13.704;2023-02-28T08:23:22;17.08;;;10.15;;
56893;SDS011;43392;50.078;13.704;2023-02-28T08:25:54;16.95;;;9.38;;
56893;SDS011;43392;50.078;13.704;2023-02-28T08:28:20;16.42;;;9.18;;
56893;SDS011;43392;50.078;13.704;2023-02-28T08:30:47;19.35;;;9.70;;
56893;SDS011;43392;50.078;13.704;2023-02-28T08:33:14;19.27;;;9.50;;
56893;SDS011;43392;50.078;13.704;2023-02-28T08:35:40;20.00;;;9.85;;
56893;SDS011;43392;50.078;13.704;2023-02-28T08:38:07;15.52;;;8.95;;
56893;SDS011;43392;50.078;13.704;2023-02-28T08:40:33;23.15;;;11.23;;
56893;SDS011;43392;50.078;13.704;2023-02-28T08:43:01;19.08;;;10.43;;
56893;SDS011;43392;50.078;13.704;2023-02-28T08:45:28;19.88;;;10.30;;
56893;SDS011;43392;50.078;13.704;2023-02-28T08:47:54;21.98;;;10.07;;
56893;SDS011;43392;50.078;13.704;2023-02-28T08:50:21;19.20;;;9.55;;
56893;SDS011;43392;50.078;13.704;2023-02-28T08:52:48;17.88;;;9.65;;
56893;SDS011;43392;50.078;13.704;2023-02-28T08:55:14;17.65;;;10.23;;
56893;SDS011;43392;50.078;13.704;2023-02-28T08:57:41;16.65;;;8.90;;
56893;SDS011;43392;50.078;13.704;2023-02-28T09:00:10;16.60;;;9.02;;
56893;SDS011;43392;50.078;13.704;2023-02-28T09:05:05;17.92;;;9.32;;
56893;SDS011;43392;50.078;13.704;2023-02-28T09:07:32;17.52;;;10.07;;
56893;SDS011;43392;50.078;13.704;2023-02-28T09:09:59;15.60;;;9.35;;
56893;SDS011;43392;50.078;13.704;2023-02-28T09:12:26;16.90;;;8.98;;
56893;SDS011;43392;50.078;13.704;2023-02-28T09:14:57;17.55;;;9.88;;
56893;SDS011;43392;50.078;13.704;2023-02-28T09:17:25;16.48;;;9.90;;
56893;SDS011;43392;50.078;13.704;2023-02-28T09:19:52;19.77;;;9.70;;
56893;SDS011;43392;50.078;13.704;2023-02-28T09:22:18;19.20;;;9.68;;
56893;SDS011;43392;50.078;13.704;2023-02-28T09:24:45;19.63;;;10.40;;
56893;SDS011;43392;50.078;13.704;2023-02-28T09:27:11;15.45;;;9.20;;
56893;SDS011;43392;50.078;13.704;2023-02-28T09:29:38;17.88;;;9.23;;
56893;SDS011;43392;50.078;13.704;2023-02-28T09:32:05;20.42;;;9.77;;
56893;SDS011;43392;50.078;13.704;2023-02-28T09:34:33;17.48;;;9.70;;
56893;SDS011;43392;50.078;13.704;2023-02-28T09:37:01;17.58;;;9.32;;
56893;SDS011;43392;50.078;13.704;2023-02-28T09:39:28;18.65;;;9.60;;
56893;SDS011;43392;50.078;13.704;2023-02-28T09:41:56;20.23;;;9.82;;
56893;SDS011;43392;50.078;13.704;2023-02-28T09:44:26;17.92;;;8.75;;
56893;SDS011;43392;50.078;13.704;2023-02-28T09:46:55;16.70;;;9.65;;
56893;SDS011;43392;50.078;13.704;2023-02-28T09:49:27;16.73;;;9.93;;
56893;SDS011;43392;50.078;13.704;2023-02-28T09:52:01;16.92;;;9.60;;
56893;SDS011;43392;50.078;13.704;2023-02-28T09:54:30;16.00;;;8.73;;
56893;SDS011;43392;50.078;13.704;2023-02-28T09:56:59;15.52;;;8.45;;
56893;SDS011;43392;50.078;13.704;2023-02-28T09:59:42;14.57;;;8.77;;
56893;SDS011;43392;50.078;13.704;2023-02-28T10:02:24;14.50;;;8.05;;
56893;SDS011;43392;50.078;13.704;2023-02-28T10:05:08;15.95;;;8.20;;
56893;SDS011;43392;50.078;13.704;2023-02-28T10:07:45;14.20;;;7.85;;
56893;SDS011;43392;50.078;13.704;2023-02-28T10:10:24;12.45;;;7.18;;
56893;SDS011;43392;50.078;13.704;2023-02-28T10:12:55;16.27;;;7.72;;
56893;SDS011;43392;50.078;13.704;2023-02-28T10:15:25;17.25;;;8.70;;
56893;SDS011;43392;50.078;13.704;2023-02-28T10:17:56;13.07;;;7.30;;
56893;SDS011;43392;50.078;13.704;2023-02-28T10:20:26;14.90;;;7.47;;
56893;SDS011;43392;50.078;13.704;2023-02-28T10:22:58;12.15;;;7.05;;
56893;SDS011;43392;50.078;13.704;2023-02-28T10:25:32;15.82;;;7.93;;
56893;SDS011;43392;50.078;13.704;2023-02-28T10:28:00;14.30;;;8.27;;
56893;SDS011;43392;50.078;13.704;2023-02-28T10:30:36;13.55;;;7.70;;
56893;SDS011;43392;50.078;13.704;2023-02-28T10:33:05;14.65;;;8.50;;
56893;SDS011;43392;50.078;13.704;2023-02-28T10:35:38;16.33;;;8.55;;
56893;SDS011;43392;50.078;13.704;2023-02-28T10:38:10;17.65;;;9.35;;
56893;SDS011;43392;50.078;13.704;2023-02-28T10:40:42;13.65;;;8.48;;
56893;SDS011;43392;50.078;13.704;2023-02-28T10:43:17;15.45;;;9.18;;
56893;SDS011;43392;50.078;13.704;2023-02-28T10:45:52;17.23;;;8.18;;
56893;SDS011;43392;50.078;13.704;2023-02-28T10:48:26;15.10;;;7.78;;
56893;SDS011;43392;50.078;13.704;2023-02-28T10:50:56;16.48;;;9.60;;
56893;SDS011;43392;50.078;13.704;2023-02-28T10:53:35;17.52;;;9.25;;
56893;SDS011;43392;50.078;13.704;2023-02-28T10:56:06;16.30;;;8.85;;
56893;SDS011;43392;50.078;13.704;2023-02-28T10:58:46;16.30;;;8.60;;
56893;SDS011;43392;50.078;13.704;2023-02-28T11:01:17;16.45;;;9.25;;
56893;SDS011;43392;50.078;13.704;2023-02-28T11:03:44;16.30;;;9.20;;
56893;SDS011;43392;50.078;13.704;2023-02-28T11:06:15;16.58;;;8.82;;
56893;SDS011;43392;50.078;13.704;2023-02-28T11:08:47;17.67;;;9.25;;
56893;SDS011;43392;50.078;13.704;2023-02-28T11:11:17;16.58;;;9.50;;
56893;SDS011;43392;50.078;13.704;2023-02-28T11:13:45;17.95;;;9.32;;
56893;SDS011;43392;50.078;13.704;2023-02-28T11:16:15;16.90;;;9.93;;
56893;SDS011;43392;50.078;13.704;2023-02-28T11:18:43;15.80;;;8.88;;
56893;SDS011;43392;50.078;13.704;2023-02-28T11:21:18;18.05;;;9.73;;
56893;SDS011;43392;50.078;13.704;2023-02-28T11:23:50;17.08;;;9.73;;
56893;SDS011;43392;50.078;13.704;2023-02-28T11:29:08;14.88;;;9.50;;
56893;SDS011;43392;50.078;13.704;2023-02-28T11:31:38;20.85;;;10.77;;
56893;SDS011;43392;50.078;13.704;2023-02-28T11:36:49;16.60;;;9.35;;
56893;SDS011;43392;50.078;13.704;2023-02-28T11:39:18;17.88;;;9.13;;
56893;SDS011;43392;50.078;13.704;2023-02-28T11:41:51;16.17;;;8.88;;
56893;SDS011;43392;50.078;13.704;2023-02-28T11:44:29;17.63;;;9.38;;
56893;SDS011;43392;50.078;13.704;2023-02-28T11:47:09;18.45;;;9.65;;
56893;SDS011;43392;50.078;13.704;2023-02-28T11:49:44;16.30;;;9.30;;
56893;SDS011;43392;50.078;13.704;2023-02-28T11:52:20;14.68;;;9.13;;
56893;SDS011;43392;50.078;13.704;2023-02-28T11:55:00;14.48;;;8.90;;
56893;SDS011;43392;50.078;13.704;2023-02-28T12:03:26;16.70;;;9.38;;
56893;SDS011;43392;50.078;13.704;2023-02-28T12:06:01;15.73;;;9.43;;
56893;SDS011;43392;50.078;13.704;2023-02-28T12:11:31;15.23;;;9.27;;
56893;SDS011;43392;50.078;13.704;2023-02-28T12:17:16;17.80;;;10.15;;
56893;SDS011;43392;50.078;13.704;2023-02-28T12:19:56;15.73;;;8.43;;
56893;SDS011;43392;50.078;13.704;2023-02-28T12:22:30;15.32;;;8.95;;
56893;SDS011;43392;50.078;13.704;2023-02-28T12:28:02;14.98;;;9.48;;
56893;SDS011;43392;50.078;13.704;2023-02-28T12:30:31;15.20;;;9.48;;
56893;SDS011;43392;50.078;13.704;2023-02-28T12:33:01;15.77;;;9.40;;
56893;SDS011;43392;50.078;13.704;2023-02-28T12:35:32;17.90;;;10.32;;
56893;SDS011;43392;50.078;13.704;2023-02-28T12:38:02;18.40;;;10.32;;
56893;SDS011;43392;50.078;13.704;2023-02-28T12:40:33;17.23;;;9.93;;
56893;SDS011;43392;50.078;13.704;2023-02-28T12:43:10;15.07;;;9.30;;
56893;SDS011;43392;50.078;13.704;2023-02-28T12:45:41;15.73;;;9.25;;
56893;SDS011;43392;50.078;13.704;2023-02-28T12:48:14;14.60;;;8.70;;
56893;SDS011;43392;50.078;13.704;2023-02-28T12:50:45;16.40;;;9.57;;
56893;SDS011;43392;50.078;13.704;2023-02-28T12:53:15;17.88;;;10.07;;
56893;SDS011;43392;50.078;13.704;2023-02-28T12:55:54;16.95;;;10.60;;
56893;SDS011;43392;50.078;13.704;2023-02-28T12:58:31;16.65;;;8.98;;
56893;SDS011;43392;50.078;13.704;2023-02-28T13:01:06;15.63;;;9.15;;
56893;SDS011;43392;50.078;13.704;2023-02-28T13:04:01;15.15;;;9.30;;
56893;SDS011;43392;50.078;13.704;2023-02-28T13:06:46;15.98;;;8.82;;
56893;SDS011;43392;50.078;13.704;2023-02-28T13:09:26;13.43;;;8.27;;
56893;SDS011;43392;50.078;13.704;2023-02-28T13:11:54;16.40;;;8.80;;
56893;SDS011;43392;50.078;13.704;2023-02-28T13:14:25;15.85;;;9.55;;
56893;SDS011;43392;50.078;13.704;2023-02-28T13:16:56;16.80;;;9.00;;
56893;SDS011;43392;50.078;13.704;2023-02-28T13:19:26;19.10;;;10.27;;
56893;SDS011;43392;50.078;13.704;2023-02-28T13:21:55;14.48;;;8.75;;
56893;SDS011;43392;50.078;13.704;2023-02-28T13:24:42;18.58;;;9.13;;
56893;SDS011;43392;50.078;13.704;2023-02-28T13:30:02;15.40;;;9.63;;
56893;SDS011;43392;50.078;13.704;2023-02-28T13:33:25;17.65;;;9.82;;
56893;SDS011;43392;50.078;13.704;2023-02-28T13:38:52;18.08;;;9.55;;
56893;SDS011;43392;50.078;13.704;2023-02-28T13:44:13;17.92;;;9.57;;
56893;SDS011;43392;50.078;13.704;2023-02-28T13:49:46;15.73;;;9.52;;
56893;SDS011;43392;50.078;13.704;2023-02-28T13:52:15;16.45;;;9.70;;
56893;SDS011;43392;50.078;13.704;2023-02-28T13:54:51;18.63;;;9.52;;
56893;SDS011;43392;50.078;13.704;2023-02-28T13:57:27;17.63;;;9.38;;
56893;SDS011;43392;50.078;13.704;2023-02-28T14:00:07;16.88;;;9.65;;
56893;SDS011;43392;50.078;13.704;2023-02-28T14:05:52;17.77;;;10.25;;
56893;SDS011;43392;50.078;13.704;2023-02-28T14:08:35;19.27;;;10.50;;
56893;SDS011;43392;50.078;13.704;2023-02-28T14:11:03;19.40;;;9.65;;
56893;SDS011;43392;50.078;13.704;2023-02-28T14:13:40;15.50;;;9.18;;
56893;SDS011;43392;50.078;13.704;2023-02-28T14:16:11;16.05;;;9.32;;
56893;SDS011;43392;50.078;13.704;2023-02-28T14:18:42;16.05;;;8.88;;
56893;SDS011;43392;50.078;13.704;2023-02-28T14:21:19;18.73;;;10.20;;
56893;SDS011;43392;50.078;13.704;2023-02-28T14:24:03;20.00;;;10.73;;
56893;SDS011;43392;50.078;13.704;2023-02-28T14:26:54;23.17;;;12.23;;
56893;SDS011;43392;50.078;13.704;2023-02-28T14:32:27;14.55;;;9.60;;
56893;SDS011;43392;50.078;13.704;2023-02-28T14:35:02;16.33;;;9.82;;
56893;SDS011;43392;50.078;13.704;2023-02-28T14:37:39;14.65;;;9.60;;
56893;SDS011;43392;50.078;13.704;2023-02-28T14:40:11;17.35;;;9.73;;
56893;SDS011;43392;50.078;13.704;2023-02-28T14:42:46;14.43;;;8.55;;
56893;SDS011;43392;50.078;13.704;2023-02-28T14:45:17;15.90;;;9.23;;
56893;SDS011;43392;50.078;13.704;2023-02-28T14:47:45;17.73;;;9.95;;
56893;SDS011;43392;50.078;13.704;2023-02-28T14:50:18;19.38;;;9.73;;
56893;SDS011;43392;50.078;13.704;2023-02-28T14:52:46;16.95;;;10.90;;
56893;SDS011;43392;50.078;13.704;2023-02-28T14:55:16;16.17;;;9.32;;
56893;SDS011;43392;50.078;13.704;2023-02-28T14:57:50;15.15;;;8.90;;
56893;SDS011;43392;50.078;13.704;2023-02-28T15:00:21;16.10;;;9.18;;
56893;SDS011;43392;50.078;13.704;2023-02-28T15:02:49;14.50;;;9.07;;
56893;SDS011;43392;50.078;13.704;2023-02-28T15:05:21;16.38;;;9.18;;
56893;SDS011;43392;50.078;13.704;2023-02-28T15:08:03;20.10;;;10.60;;
56893;SDS011;43392;50.078;13.704;2023-02-28T15:10:32;14.77;;;9.65;;
56893;SDS011;43392;50.078;13.704;2023-02-28T15:13:00;17.67;;;9.73;;
56893;SDS011;43392;50.078;13.704;2023-02-28T15:15:34;17.85;;;9.85;;
56893;SDS011;43392;50.078;13.704;2023-02-28T15:18:07;17.80;;;10.10;;
56893;SDS011;43392;50.078;13.704;2023-02-28T15:20:41;17.80;;;9.80;;
56893;SDS011;43392;50.078;13.704;2023-02-28T15:23:10;17.25;;;10.18;;
56893;SDS011;43392;50.078;13.704;2023-02-28T15:25:37;17.45;;;9.80;;
56893;SDS011;43392;50.078;13.704;2023-02-28T15:28:09;17.38;;;10.82;;